Time;durP1;ratioP1;P1;durP2;ratioP2;P2;SDS_P1;SDS_P2;PMS_P1;PMS_P2;Temp;Humidity;BMP_temperature;BMP_pressure;BME280_temperature;BME280_humidity;BME280_pressure;Samples;Min_cycle;Max_cycle;Signal;HPM_P1;HPM_P2
2023/10/01 00:00:15;;;;;;;5.72;3.13;;;14.20;99.90;;;;;;4944521;28;20057;-92
2023/10/01 00:02:41;;;;;;;3.47;1.88;;;14.20;99.90;;;;;;4946106;28;20063;-91
2023/10/01 00:05:08;;;;;;;3.80;2.33;;;14.20;99.90;;;;;;4957641;28;20038;-91
2023/10/01 00:07:37;;;;;;;4.20;2.55;;;14.20;99.90;;;;;;4958211;28;20390;-91
2023/10/01 00:10:06;;;;;;;3.63;2.65;;;14.10;99.90;;;;;;4955733;28;20038;-92
2023/10/01 00:12:33;;;;;;;5.07;2.65;;;14.10;99.90;;;;;;4960198;28;20038;-91
2023/10/01 00:14:59;;;;;;;5.72;2.35;;;14.00;99.90;;;;;;4972579;28;20038;-91
2023/10/01 00:17:25;;;;;;;4.35;2.90;;;14.00;99.90;;;;;;4958236;28;20042;-91
2023/10/01 00:19:52;;;;;;;4.28;2.45;;;14.00;99.90;;;;;;4945494;28;20138;-92
2023/10/01 00:22:18;;;;;;;5.68;3.00;;;14.00;99.90;;;;;;4937811;28;20078;-91
2023/10/01 00:24:46;;;;;;;3.28;1.83;;;14.00;99.90;;;;;;4943436;28;20039;-93
2023/10/01 00:27:12;;;;;;;3.47;2.17;;;14.00;99.90;;;;;;4955005;28;20244;-92
2023/10/01 00:29:38;;;;;;;3.17;2.17;;;14.00;99.90;;;;;;4929000;28;20046;-93
2023/10/01 00:32:04;;;;;;;4.15;2.90;;;13.90;99.90;;;;;;4947623;28;20030;-92
2023/10/01 00:34:30;;;;;;;6.05;3.30;;;13.90;99.90;;;;;;4925137;28;20058;-91
2023/10/01 00:36:56;;;;;;;4.65;3.13;;;13.80;99.90;;;;;;4956479;28;20100;-93
2023/10/01 00:39:24;;;;;;;5.32;3.90;;;13.70;99.90;;;;;;4972400;28;20043;-93
2023/10/01 00:41:52;;;;;;;4.25;3.47;;;13.80;99.90;;;;;;4935933;28;20042;-91
2023/10/01 00:44:19;;;;;;;4.53;3.03;;;13.70;99.90;;;;;;4971218;28;20125;-91
2023/10/01 00:46:45;;;;;;;5.25;3.35;;;13.80;99.90;;;;;;4937109;28;20062;-92
2023/10/01 00:49:12;;;;;;;4.25;2.88;;;13.70;99.90;;;;;;4941295;28;20039;-91
2023/10/01 00:51:38;;;;;;;5.10;3.50;;;13.80;99.90;;;;;;4960894;28;20030;-91
2023/10/01 00:54:04;;;;;;;5.47;2.97;;;13.70;99.90;;;;;;4937870;28;20039;-92
2023/10/01 00:56:32;;;;;;;4.30;3.03;;;13.80;99.90;;;;;;4959549;28;20035;-92
2023/10/01 00:58:58;;;;;;;4.80;3.03;;;13.70;99.90;;;;;;4945926;28;20053;-92
2023/10/01 01:01:26;;;;;;;4.93;2.78;;;13.80;99.90;;;;;;4968233;28;20023;-92
2023/10/01 01:03:52;;;;;;;3.70;2.72;;;13.70;99.90;;;;;;4938487;28;20093;-92
2023/10/01 01:06:23;;;;;;;4.30;3.25;;;13.70;99.90;;;;;;4962530;28;20480;-91
2023/10/01 01:08:54;;;;;;;4.38;2.55;;;13.70;99.90;;;;;;4969685;28;20030;-91
2023/10/01 01:11:22;;;;;;;4.07;2.30;;;13.60;99.90;;;;;;4948506;28;20042;-91
2023/10/01 01:13:50;;;;;;;4.55;2.90;;;13.60;99.90;;;;;;4939265;28;20053;-92
2023/10/01 01:16:20;;;;;;;3.63;2.45;;;13.60;99.90;;;;;;4969889;28;20063;-91
2023/10/01 01:18:47;;;;;;;4.20;2.88;;;13.60;99.90;;;;;;4976283;28;20151;-92
2023/10/01 01:21:16;;;;;;;6.65;2.70;;;13.60;99.90;;;;;;4958175;28;20046;-91
2023/10/01 01:23:45;;;;;;;4.10;2.95;;;13.50;99.90;;;;;;4972161;28;20034;-92
2023/10/01 01:26:13;;;;;;;4.30;2.97;;;13.50;99.90;;;;;;4942509;28;20479;-91
2023/10/01 01:28:41;;;;;;;6.13;3.20;;;13.50;99.90;;;;;;4953408;28;20026;-91
2023/10/01 01:31:08;;;;;;;3.92;2.38;;;13.50;99.90;;;;;;4946199;28;20031;-91
2023/10/01 01:33:40;;;;;;;5.32;3.13;;;13.40;99.90;;;;;;4940489;28;20178;-91
2023/10/01 01:36:10;;;;;;;5.60;2.97;;;13.40;99.90;;;;;;4975577;28;20042;-91
2023/10/01 01:39:10;;;;;;;5.20;3.00;;;13.40;99.90;;;;;;4943232;28;20022;-96
2023/10/01 01:41:48;;;;;;;4.55;3.08;;;13.30;99.90;;;;;;4937786;28;20043;-91
2023/10/01 01:44:15;;;;;;;4.43;2.17;;;13.40;99.90;;;;;;4945973;28;20073;-91
2023/10/01 01:46:49;;;;;;;6.68;2.80;;;13.40;99.90;;;;;;4938798;28;22191;-92
2023/10/01 01:49:18;;;;;;;5.28;3.00;;;13.40;99.90;;;;;;4936754;28;20026;-90
2023/10/01 01:51:57;;;;;;;3.85;2.20;;;13.40;99.90;;;;;;4961769;28;20026;-93
2023/10/01 01:54:29;;;;;;;4.38;3.13;;;13.40;99.90;;;;;;4937070;28;20039;-91
2023/10/01 01:56:57;;;;;;;4.00;2.85;;;13.40;99.90;;;;;;4943664;28;20034;-91
2023/10/01 01:59:24;;;;;;;3.55;2.83;;;13.40;99.90;;;;;;4951485;28;20121;-91
2023/10/01 02:01:55;;;;;;;3.88;2.80;;;13.40;99.90;;;;;;4937969;29;20034;-91
2023/10/01 02:04:23;;;;;;;3.97;2.60;;;13.40;99.90;;;;;;4956764;28;20045;-92
2023/10/01 02:06:56;;;;;;;4.07;2.90;;;13.40;99.90;;;;;;4956569;28;20110;-91
2023/10/01 02:09:24;;;;;;;4.95;2.55;;;13.40;99.90;;;;;;4944013;28;20101;-91
2023/10/01 02:11:52;;;;;;;5.35;2.95;;;13.40;99.90;;;;;;4945978;28;20054;-92
2023/10/01 02:14:31;;;;;;;5.07;3.25;;;13.50;99.90;;;;;;4933973;28;20045;-92
2023/10/01 02:17:18;;;;;;;5.93;3.83;;;13.50;99.90;;;;;;4938136;28;20493;-92
2023/10/01 02:19:46;;;;;;;6.05;2.97;;;13.50;99.90;;;;;;4947509;28;20483;-92
2023/10/01 02:22:13;;;;;;;6.75;2.83;;;13.50;99.90;;;;;;4950736;28;20031;-91
2023/10/01 02:24:45;;;;;;;4.10;2.72;;;13.50;99.90;;;;;;4937634;28;20133;-91
2023/10/01 02:27:19;;;;;;;4.85;3.10;;;13.50;99.90;;;;;;4941859;28;20054;-92
2023/10/01 02:32:32;;;;;;;3.92;2.63;;;13.60;99.90;;;;;;4957429;28;20027;-91
2023/10/01 02:35:00;;;;;;;5.45;3.83;;;13.60;99.90;;;;;;4954826;28;20554;-91
2023/10/01 02:37:29;;;;;;;4.07;2.78;;;13.60;99.90;;;;;;4958076;28;20035;-90
2023/10/01 02:40:00;;;;;;;5.20;2.67;;;13.60;99.90;;;;;;4946821;28;20035;-92
2023/10/01 02:42:30;;;;;;;3.90;2.47;;;13.70;99.90;;;;;;4945385;28;20098;-91
2023/10/01 02:44:56;;;;;;;5.80;3.63;;;13.70;99.90;;;;;;4944144;28;20410;-92
2023/10/01 02:47:24;;;;;;;7.05;3.10;;;13.70;99.90;;;;;;4956935;28;20038;-92
2023/10/01 02:49:58;;;;;;;4.53;2.80;;;13.70;99.90;;;;;;4941633;28;20035;-92
2023/10/01 02:52:36;;;;;;;4.97;3.17;;;13.70;99.90;;;;;;4946101;28;20031;-93
2023/10/01 02:55:16;;;;;;;6.15;3.47;;;13.70;99.90;;;;;;4951652;28;20035;-91
2023/10/01 02:57:43;;;;;;;3.97;2.25;;;13.70;99.90;;;;;;4961836;28;20031;-91
2023/10/01 03:02:39;;;;;;;4.90;2.97;;;13.80;99.90;;;;;;4953002;28;20031;-92
2023/10/01 03:05:08;;;;;;;4.05;2.10;;;13.80;99.90;;;;;;4961669;28;20294;-94
2023/10/01 03:07:45;;;;;;;3.65;1.85;;;13.70;99.90;;;;;;4941604;28;20040;-91
2023/10/01 03:10:12;;;;;;;3.72;2.10;;;13.80;99.90;;;;;;4961985;28;20035;-92
2023/10/01 03:12:40;;;;;;;4.07;2.50;;;13.80;99.90;;;;;;4954984;28;20039;-90
2023/10/01 03:17:41;;;;;;;5.47;2.65;;;13.80;99.90;;;;;;4951187;28;20114;-92
2023/10/01 03:22:53;;;;;;;4.50;2.35;;;13.80;99.90;;;;;;4968409;28;20034;-91
2023/10/01 03:25:20;;;;;;;4.07;2.47;;;13.80;99.90;;;;;;4946154;28;20101;-92
2023/10/01 03:27:46;;;;;;;3.60;2.28;;;13.80;99.90;;;;;;4960435;28;20289;-92
2023/10/01 03:30:21;;;;;;;4.90;2.35;;;13.80;99.90;;;;;;4962269;28;20035;-92
2023/10/01 03:32:47;;;;;;;4.95;2.53;;;13.80;99.90;;;;;;4944311;28;20023;-91
2023/10/01 03:35:13;;;;;;;4.15;2.03;;;13.80;99.90;;;;;;4942410;28;20055;-92
2023/10/01 03:37:39;;;;;;;5.38;3.05;;;13.80;99.90;;;;;;4960372;28;20022;-91
2023/10/01 03:40:21;;;;;;;4.57;2.63;;;13.70;99.90;;;;;;4978944;28;20037;-92
2023/10/01 03:42:51;;;;;;;4.70;2.38;;;13.80;99.90;;;;;;4945461;28;20037;-93
2023/10/01 03:47:59;;;;;;;5.55;2.65;;;13.80;99.90;;;;;;4954478;28;20035;-91
2023/10/01 03:50:25;;;;;;;5.85;2.80;;;13.70;99.90;;;;;;4937029;28;20039;-92
2023/10/01 03:52:59;;;;;;;5.65;2.45;;;13.80;99.90;;;;;;4974731;28;20031;-90
2023/10/01 03:55:28;;;;;;;5.90;2.90;;;13.70;99.90;;;;;;4945495;28;20419;-91
2023/10/01 04:00:40;;;;;;;4.50;2.25;;;13.80;99.90;;;;;;4958941;28;20039;-92
2023/10/01 04:03:14;;;;;;;5.10;2.65;;;13.70;99.90;;;;;;4949026;28;20483;-91
2023/10/01 04:05:45;;;;;;;4.05;2.60;;;13.70;99.90;;;;;;4950326;28;20067;-93
2023/10/01 04:08:13;;;;;;;4.82;2.55;;;13.70;99.90;;;;;;4938868;28;20111;-93
2023/10/01 04:10:39;;;;;;;3.60;2.17;;;13.80;99.90;;;;;;4956487;28;20098;-92
2023/10/01 04:13:12;;;;;;;4.07;2.75;;;13.80;99.90;;;;;;4932169;28;20042;-91
2023/10/01 04:15:46;;;;;;;4.63;2.20;;;13.80;99.90;;;;;;4937319;28;20035;-92
2023/10/01 04:20:49;;;;;;;4.57;1.95;;;13.90;99.90;;;;;;4973376;28;20038;-90
2023/10/01 04:23:29;;;;;;;4.97;1.25;;;13.90;99.90;;;;;;4957156;28;20038;-92
2023/10/01 04:25:55;;;;;;;4.10;1.40;;;13.90;99.90;;;;;;4957865;28;20039;-92
2023/10/01 04:28:23;;;;;;;4.22;1.77;;;13.90;99.90;;;;;;4936204;28;20023;-91
2023/10/01 04:30:52;;;;;;;3.20;1.33;;;13.90;99.90;;;;;;4941505;28;20031;-92
2023/10/01 04:33:22;;;;;;;5.30;1.60;;;13.90;99.90;;;;;;4956704;28;20031;-92
2023/10/01 04:35:55;;;;;;;3.38;1.50;;;13.90;99.90;;;;;;4955352;28;20117;-91
2023/10/01 04:38:32;;;;;;;3.03;1.42;;;13.90;99.90;;;;;;4953529;28;20368;-89
2023/10/01 04:40:58;;;;;;;3.72;1.90;;;13.90;99.90;;;;;;4948751;28;20061;-92
2023/10/01 04:43:26;;;;;;;4.05;1.42;;;13.90;99.90;;;;;;4939561;28;20023;-92
2023/10/01 04:45:52;;;;;;;4.10;1.70;;;13.90;99.90;;;;;;4945597;28;20071;-94
2023/10/01 04:48:24;;;;;;;5.25;1.73;;;13.90;99.90;;;;;;4961065;28;20022;-92
2023/10/01 04:50:54;;;;;;;4.38;1.98;;;13.90;99.90;;;;;;4946553;28;20483;-92
2023/10/01 04:53:23;;;;;;;5.20;2.55;;;13.90;99.90;;;;;;4953192;28;20031;-93
2023/10/01 04:56:05;;;;;;;5.05;2.63;;;13.90;99.90;;;;;;4941064;28;20039;-91
2023/10/01 04:58:38;;;;;;;2.85;1.52;;;13.90;99.90;;;;;;4939152;28;20423;-90
2023/10/01 05:01:17;;;;;;;5.97;2.80;;;13.90;99.90;;;;;;4960636;28;20058;-91
2023/10/01 05:03:44;;;;;;;3.85;1.95;;;13.90;99.90;;;;;;4943510;28;20035;-90
2023/10/01 05:06:13;;;;;;;5.43;2.38;;;13.90;99.90;;;;;;4937417;28;20031;-90
2023/10/01 05:08:42;;;;;;;4.10;1.80;;;13.90;99.90;;;;;;4962347;28;20072;-92
2023/10/01 05:11:12;;;;;;;4.30;2.10;;;13.90;99.90;;;;;;4943800;28;20059;-92
2023/10/01 05:13:41;;;;;;;;;;;13.90;99.90;;;;;;4953878;28;20026;-92
2023/10/01 05:16:10;;;;;;;5.78;2.00;;;14.00;99.90;;;;;;4954148;28;20005;-91
2023/10/01 05:18:35;;;;;;;4.43;1.77;;;14.00;99.90;;;;;;4940347;28;20031;-91
2023/10/01 05:21:12;;;;;;;6.03;1.88;;;13.90;99.90;;;;;;4958724;28;20030;-92
2023/10/01 05:23:43;;;;;;;4.18;1.73;;;13.90;99.90;;;;;;4936301;28;20118;-92
2023/10/01 05:26:10;;;;;;;4.35;1.80;;;14.00;99.90;;;;;;4956487;28;20054;-90
2023/10/01 05:28:41;;;;;;;6.13;2.10;;;14.00;99.90;;;;;;4942981;28;20031;-91
2023/10/01 05:31:14;;;;;;;4.20;1.50;;;13.90;99.90;;;;;;4957338;28;20491;-90
2023/10/01 05:33:46;;;;;;;3.53;1.73;;;13.90;99.90;;;;;;4954734;28;20032;-93
2023/10/01 05:36:16;;;;;;;4.90;2.45;;;14.00;99.90;;;;;;4970693;28;20455;-91
2023/10/01 05:38:43;;;;;;;4.82;1.58;;;13.90;99.90;;;;;;4944935;28;20036;-94
2023/10/01 05:41:15;;;;;;;4.45;2.15;;;14.00;99.90;;;;;;4943734;28;20054;-92
2023/10/01 05:43:50;;;;;;;5.57;2.17;;;13.90;99.90;;;;;;4953376;28;20026;-90
2023/10/01 05:46:22;;;;;;;5.10;1.83;;;14.00;99.90;;;;;;4943207;28;20050;-94
2023/10/01 05:48:49;;;;;;;6.13;2.13;;;13.90;99.90;;;;;;4936990;29;20031;-93
2023/10/01 05:51:19;;;;;;;4.75;2.08;;;14.00;99.90;;;;;;4954116;28;20093;-90
2023/10/01 05:53:46;;;;;;;4.93;1.88;;;14.00;99.90;;;;;;4960012;28;20514;-90
2023/10/01 05:56:15;;;;;;;4.75;1.77;;;14.00;99.90;;;;;;4957138;28;20030;-90
2023/10/01 05:58:41;;;;;;;5.40;1.67;;;14.00;99.90;;;;;;4936785;28;20160;-91
2023/10/01 06:01:16;;;;;;;4.40;1.70;;;14.00;99.90;;;;;;4973846;28;20030;-88
2023/10/01 06:03:49;;;;;;;4.40;1.88;;;14.00;99.90;;;;;;4941728;28;20460;-92
2023/10/01 06:06:25;;;;;;;3.45;1.70;;;14.00;99.90;;;;;;4956645;28;20042;-88
2023/10/01 06:08:58;;;;;;;5.03;1.50;;;14.00;99.90;;;;;;4943184;28;20038;-93
2023/10/01 06:17:00;;;;;;;3.55;1.42;;;14.00;99.90;;;;;;4962002;28;20136;-90
2023/10/01 06:19:27;;;;;;;5.57;2.42;;;14.10;99.90;;;;;;4971837;28;20030;-91
2023/10/01 06:21:53;;;;;;;5.38;1.45;;;14.00;99.90;;;;;;4940428;28;20658;-91
2023/10/01 06:24:21;;;;;;;5.40;2.28;;;14.10;99.90;;;;;;4956874;28;20058;-92
2023/10/01 06:26:48;;;;;;;6.07;2.33;;;14.10;99.90;;;;;;4961480;28;20058;-89
2023/10/01 06:29:14;;;;;;;5.43;2.28;;;14.10;99.90;;;;;;4940543;28;20032;-90
2023/10/01 06:32:00;;;;;;;3.38;1.55;;;14.10;99.90;;;;;;4943861;28;20051;-88
2023/10/01 06:34:31;;;;;;;5.47;2.05;;;14.20;99.90;;;;;;4942488;28;20049;-90
2023/10/01 06:36:59;;;;;;;4.30;1.38;;;14.20;99.90;;;;;;4943427;28;20030;-92
2023/10/01 06:39:25;;;;;;;4.55;1.95;;;14.30;99.90;;;;;;4962215;28;20034;-91
2023/10/01 06:42:17;;;;;;;5.65;1.65;;;14.20;99.90;;;;;;4958262;28;20022;-89
2023/10/01 06:44:40;;;;;;;5.90;1.90;;;14.20;99.90;;;;;;4974214;28;20030;-88
2023/10/01 06:47:14;;;;;;;6.38;1.88;;;14.30;99.90;;;;;;4943432;28;20030;-92
2023/10/01 06:49:57;;;;;;;5.22;1.70;;;14.30;99.90;;;;;;4943256;28;20031;-93
2023/10/01 06:52:29;;;;;;;5.53;2.17;;;14.30;99.90;;;;;;4944260;28;20053;-93
2023/10/01 06:54:55;;;;;;;5.65;1.65;;;14.30;99.90;;;;;;4956418;28;20027;-89
2023/10/01 06:57:23;;;;;;;4.95;1.85;;;14.40;99.90;;;;;;4959901;28;20030;-91
2023/10/01 06:59:49;;;;;;;4.63;1.67;;;14.40;99.90;;;;;;4959436;28;20027;-91
2023/10/01 07:02:15;;;;;;;5.82;2.08;;;14.50;99.90;;;;;;4945076;28;20467;-91
2023/10/01 07:04:41;;;;;;;3.67;1.80;;;14.50;99.90;;;;;;4961054;28;20406;-90
2023/10/01 07:07:20;;;;;;;4.63;2.08;;;14.70;99.90;;;;;;4941155;28;20027;-92
2023/10/01 07:09:49;;;;;;;5.30;2.15;;;14.80;99.90;;;;;;4940606;28;20254;-93
2023/10/01 07:12:17;;;;;;;;;;;14.80;99.90;;;;;;4956613;28;20035;-91
2023/10/01 07:14:43;;;;;;;5.43;1.77;;;14.90;99.90;;;;;;4941902;28;19910;-92
2023/10/01 07:17:14;;;;;;;4.95;2.00;;;14.90;99.90;;;;;;4939119;28;20075;-90
2023/10/01 07:19:43;;;;;;;6.70;2.28;;;14.90;99.90;;;;;;4957540;28;20085;-90
2023/10/01 07:22:14;;;;;;;5.03;1.85;;;15.00;99.90;;;;;;4941869;28;20030;-91
2023/10/01 07:24:40;;;;;;;4.85;2.60;;;15.00;99.90;;;;;;4944314;28;20046;-92
2023/10/01 07:27:11;;;;;;;5.05;2.45;;;15.00;99.90;;;;;;4963764;28;20027;-91
2023/10/01 07:29:43;;;;;;;7.03;2.40;;;15.10;99.90;;;;;;4961022;28;20118;-92
2023/10/01 07:32:13;;;;;;;5.65;2.25;;;15.20;99.90;;;;;;4946410;28;20026;-91
2023/10/01 07:34:40;;;;;;;3.92;1.85;;;15.20;99.90;;;;;;4942905;28;20042;-93
2023/10/01 07:37:08;;;;;;;5.70;2.33;;;15.30;99.90;;;;;;4945636;28;20031;-93
2023/10/01 07:39:36;;;;;;;6.65;2.60;;;15.40;99.90;;;;;;4949513;28;20026;-88
2023/10/01 07:42:04;;;;;;;6.10;1.80;;;15.50;99.90;;;;;;4963338;28;20038;-91
2023/10/01 07:44:36;;;;;;;5.03;2.03;;;15.60;99.90;;;;;;4962346;28;20447;-90
2023/10/01 07:47:04;;;;;;;5.50;2.55;;;15.70;99.90;;;;;;4964377;28;20034;-92
2023/10/01 07:49:50;;;;;;;4.88;2.42;;;15.80;99.90;;;;;;4948455;28;20027;-90
2023/10/01 07:52:19;;;;;;;5.97;2.38;;;15.90;99.90;;;;;;4963813;28;20041;-92
2023/10/01 07:54:49;;;;;;;10.70;3.60;;;16.00;99.90;;;;;;4964245;28;20031;-92
2023/10/01 07:57:27;;;;;;;6.95;2.47;;;16.10;99.90;;;;;;4948288;28;20034;-92
2023/10/01 07:59:54;;;;;;;5.55;1.90;;;16.20;99.90;;;;;;4943746;28;20118;-90
2023/10/01 08:02:21;;;;;;;6.03;1.67;;;16.40;99.90;;;;;;4947200;28;20041;-91
2023/10/01 08:04:57;;;;;;;3.78;1.80;;;16.60;99.90;;;;;;4943636;28;20040;-91
2023/10/01 08:07:39;;;;;;;4.95;1.77;;;16.80;99.90;;;;;;4961380;28;20467;-90
2023/10/01 08:10:16;;;;;;;6.00;2.33;;;16.90;99.90;;;;;;4961211;28;20031;-91
2023/10/01 08:16:02;;;;;;;5.53;2.35;;;17.10;99.90;;;;;;4962404;28;20149;-91
2023/10/01 08:18:46;;;;;;;5.30;2.35;;;17.10;99.90;;;;;;4946898;28;20121;-91
2023/10/01 08:21:18;;;;;;;7.22;2.22;;;17.20;99.90;;;;;;4962764;28;20031;-93
2023/10/01 08:23:54;;;;;;;6.78;2.67;;;17.30;99.90;;;;;;4951339;28;20117;-94
2023/10/01 08:29:06;;;;;;;5.97;2.28;;;17.50;99.90;;;;;;4967517;28;20113;-93
2023/10/01 08:31:43;;;;;;;8.00;2.75;;;17.70;99.90;;;;;;4945564;28;20562;-90
2023/10/01 08:34:27;;;;;;;5.60;2.20;;;17.90;99.90;;;;;;4948830;28;20046;-93
2023/10/01 08:36:58;;;;;;;3.80;1.92;;;17.90;99.90;;;;;;4924065;28;20543;-93
2023/10/01 08:42:08;;;;;;;6.60;2.72;;;18.10;99.90;;;;;;4949474;28;20411;-95
2023/10/01 08:44:54;;;;;;;7.25;2.90;;;18.30;99.90;;;;;;4924334;28;20118;-95
2023/10/01 08:47:31;;;;;;;5.63;2.60;;;18.30;99.90;;;;;;4940775;28;20027;-96
2023/10/01 08:50:17;;;;;;;7.43;3.20;;;18.50;99.90;;;;;;4946592;28;20027;-91
2023/10/01 08:52:57;;;;;;;7.68;3.05;;;18.60;99.90;;;;;;4942882;28;20114;-90
2023/10/01 08:55:41;;;;;;;8.23;3.83;;;18.80;99.90;;;;;;4941208;28;20027;-88
2023/10/01 08:58:25;;;;;;;7.22;2.60;;;18.60;99.90;;;;;;4945246;28;20027;-91
2023/10/01 09:00:56;;;;;;;5.60;2.33;;;18.90;99.90;;;;;;4941195;28;20035;-89
2023/10/01 09:03:30;;;;;;;9.13;3.75;;;19.20;99.90;;;;;;4939999;29;20088;-93
2023/10/01 09:06:03;;;;;;;7.38;3.47;;;19.10;99.90;;;;;;4943699;28;20432;-91
2023/10/01 09:08:31;;;;;;;7.53;3.13;;;19.20;99.90;;;;;;4958374;28;20109;-93
2023/10/01 09:11:10;;;;;;;9.27;3.47;;;19.30;99.90;;;;;;4926753;29;20028;-93
2023/10/01 09:13:46;;;;;;;6.67;3.10;;;19.30;99.90;;;;;;4926250;28;20464;-92
2023/10/01 09:16:13;;;;;;;8.48;3.20;;;19.60;99.90;;;;;;4928895;28;20035;-93
2023/10/01 09:22:09;;;;;;;5.18;2.38;;;19.60;99.90;;;;;;4940140;28;20030;-93
2023/10/01 09:24:39;;;;;;;8.30;3.15;;;19.70;99.90;;;;;;4920827;28;20381;-93
2023/10/01 09:27:20;;;;;;;7.93;3.63;;;19.80;99.90;;;;;;4937739;28;20125;-91
2023/10/01 09:29:57;;;;;;;7.82;3.28;;;19.80;99.90;;;;;;4937803;28;20039;-90
2023/10/01 09:32:51;;;;;;;6.57;2.88;;;19.90;99.90;;;;;;4921835;29;20106;-93
2023/10/01 09:35:38;;;;;;;12.25;5.05;;;19.80;99.90;;;;;;4952183;28;20055;-93
2023/10/01 09:38:10;;;;;;;8.90;3.50;;;19.60;99.90;;;;;;4957199;28;20023;-94
2023/10/01 09:40:42;;;;;;;9.02;4.13;;;20.00;99.90;;;;;;4958306;28;20411;-93
2023/10/01 09:43:19;;;;;;;7.80;2.92;;;20.10;99.90;;;;;;4960409;28;20085;-94
2023/10/01 09:45:49;;;;;;;6.53;3.65;;;20.50;99.90;;;;;;4957766;28;20035;-92
2023/10/01 09:48:37;;;;;;;7.93;2.55;;;20.60;99.90;;;;;;4959110;28;20046;-93
2023/10/01 09:51:11;;;;;;;7.95;3.72;;;20.80;99.90;;;;;;4942007;28;20121;-94
2023/10/01 09:53:44;;;;;;;8.60;2.90;;;20.70;99.90;;;;;;4962850;28;20018;-95
2023/10/01 09:56:14;;;;;;;11.20;3.53;;;20.70;99.90;;;;;;4957776;28;20023;-95
2023/10/01 09:58:47;;;;;;;7.55;2.70;;;20.40;99.90;;;;;;4972579;28;20027;-95
2023/10/01 10:01:17;;;;;;;6.22;3.08;;;20.40;99.90;;;;;;4965349;28;20126;-89
2023/10/01 10:03:44;;;;;;;7.18;2.92;;;20.30;99.90;;;;;;4960592;28;20114;-91
2023/10/01 10:06:24;;;;;;;7.60;3.00;;;20.30;99.90;;;;;;4962070;28;20080;-91
2023/10/01 10:09:02;;;;;;;8.38;3.42;;;20.60;99.90;;;;;;4959456;28;20105;-93
2023/10/01 10:11:44;;;;;;;7.63;3.42;;;20.80;99.90;;;;;;4958902;28;20038;-92
2023/10/01 10:14:27;;;;;;;8.07;3.58;;;21.10;99.90;;;;;;4944660;28;20077;-92
2023/10/01 10:17:07;;;;;;;8.73;3.95;;;21.20;99.90;;;;;;4952061;28;20065;-92
2023/10/01 10:19:47;;;;;;;6.57;3.20;;;21.40;99.90;;;;;;4943274;28;20038;-92
2023/10/01 10:22:16;;;;;;;8.85;3.33;;;21.50;99.90;;;;;;4959799;28;20067;-93
2023/10/01 10:24:47;;;;;;;8.02;3.17;;;21.50;99.90;;;;;;4975162;28;20069;-92
2023/10/01 10:27:33;;;;;;;7.38;3.20;;;21.50;99.90;;;;;;4945180;28;20035;-90
2023/10/01 10:30:05;;;;;;;7.67;2.97;;;21.50;99.90;;;;;;4956263;28;20039;-91
2023/10/01 10:32:42;;;;;;;6.57;3.00;;;21.30;99.90;;;;;;4959498;28;20380;-90
2023/10/01 10:35:16;;;;;;;7.70;3.88;;;21.60;99.90;;;;;;4959094;28;20088;-92
2023/10/01 10:37:56;;;;;;;9.50;3.88;;;21.50;99.90;;;;;;4961972;28;20364;-90
2023/10/01 10:40:26;;;;;;;6.75;3.35;;;21.60;99.90;;;;;;4961241;28;20047;-90
2023/10/01 10:42:58;;;;;;;7.22;2.72;;;21.70;99.90;;;;;;4973309;28;20034;-90
2023/10/01 10:45:42;;;;;;;4.30;1.75;;;21.90;99.90;;;;;;4956819;28;20042;-90
2023/10/01 10:48:14;;;;;;;10.20;3.92;;;21.90;99.90;;;;;;4939344;28;20122;-91
2023/10/01 10:50:46;;;;;;;9.10;3.50;;;21.70;99.90;;;;;;4975338;28;20034;-90
2023/10/01 10:53:27;;;;;;;8.38;3.38;;;21.90;99.90;;;;;;4957318;28;20030;-91
2023/10/01 10:56:00;;;;;;;8.13;3.17;;;21.90;99.90;;;;;;4943089;28;20026;-94
2023/10/01 10:58:29;;;;;;;6.20;2.65;;;22.10;99.90;;;;;;4945008;28;20054;-90
2023/10/01 11:00:55;;;;;;;6.97;2.33;;;22.10;99.90;;;;;;4977054;28;20023;-91
2023/10/01 11:03:40;;;;;;;10.00;3.80;;;22.00;99.90;;;;;;4963364;28;20642;-89
2023/10/01 11:06:22;;;;;;;9.68;4.22;;;22.00;99.90;;;;;;4956102;28;20543;-94
2023/10/01 11:08:53;;;;;;;8.27;3.70;;;22.00;99.90;;;;;;4979033;28;20027;-90
2023/10/01 11:11:22;;;;;;;8.90;3.80;;;22.10;99.90;;;;;;4975638;28;20471;-93
2023/10/01 11:13:59;;;;;;;8.38;3.38;;;22.00;99.90;;;;;;4950527;28;20037;-90
2023/10/01 11:16:39;;;;;;;9.20;3.97;;;22.20;99.90;;;;;;4960940;28;20026;-92
2023/10/01 11:22:09;;;;;;;7.70;3.38;;;22.50;99.90;;;;;;4982079;28;20062;-94
2023/10/01 11:24:39;;;;;;;8.77;3.08;;;22.60;99.90;;;;;;4964635;28;20044;-92
2023/10/01 11:27:25;;;;;;;7.55;3.10;;;22.70;99.90;;;;;;4961526;28;20027;-93
2023/10/01 11:30:20;;;;;;;9.43;3.60;;;22.60;99.90;;;;;;4960896;28;20046;-93
2023/10/01 11:33:13;;;;;;;7.85;2.97;;;22.60;99.90;;;;;;4942060;28;20023;-94
2023/10/01 11:35:40;;;;;;;;;;;23.00;99.90;;;;;;4954412;28;20046;-94
2023/10/01 11:38:19;;;;;;;5.03;1.95;;;22.90;99.90;;;;;;4961067;28;20368;-93
2023/10/01 11:41:07;;;;;;;5.20;1.77;;;22.90;99.90;;;;;;4948229;28;20054;-96
2023/10/01 11:43:58;;;;;;;7.10;2.97;;;22.80;99.90;;;;;;4955295;28;20058;-89
2023/10/01 11:46:32;;;;;;;8.02;3.17;;;22.80;99.90;;;;;;4956313;28;20479;-92
2023/10/01 11:49:15;;;;;;;6.82;2.70;;;22.70;99.90;;;;;;4949608;28;20042;-94
2023/10/01 11:51:47;;;;;;;7.05;3.08;;;22.90;99.90;;;;;;4945336;28;20038;-95
2023/10/01 11:54:21;;;;;;;7.00;2.63;;;22.80;99.90;;;;;;4952911;28;20502;-91
2023/10/01 11:57:08;;;;;;;8.25;2.90;;;22.90;99.90;;;;;;4959592;28;20030;-95
2023/10/01 11:59:42;;;;;;;9.30;3.97;;;22.80;99.90;;;;;;4957942;28;20037;-93
2023/10/01 12:02:20;;;;;;;9.90;3.78;;;22.80;99.90;;;;;;4962830;28;20030;-93
2023/10/01 12:04:57;;;;;;;6.95;2.70;;;22.50;99.90;;;;;;4950153;28;20368;-91
2023/10/01 12:07:31;;;;;;;8.02;2.53;;;22.80;99.90;;;;;;4924546;28;20054;-92
2023/10/01 12:09:59;;;;;;;7.57;2.45;;;23.00;99.90;;;;;;4941430;28;20039;-94
2023/10/01 12:12:27;;;;;;;7.00;2.33;;;23.00;99.90;;;;;;4946389;28;20206;-94
2023/10/01 12:15:01;;;;;;;7.75;2.55;;;23.20;99.90;;;;;;4958765;28;20166;-93
2023/10/01 12:17:46;;;;;;;7.60;2.33;;;23.00;99.90;;;;;;4954186;28;20049;-93
2023/10/01 12:20:24;;;;;;;10.73;3.47;;;23.00;99.90;;;;;;4939268;28;20042;-96
2023/10/01 12:23:11;;;;;;;6.72;2.97;;;22.90;99.90;;;;;;4957408;28;20042;-92
2023/10/01 12:25:57;;;;;;;5.43;2.35;;;22.70;99.90;;;;;;4945081;28;20388;-94
2023/10/01 12:28:30;;;;;;;6.05;1.88;;;23.00;99.90;;;;;;4958769;28;20114;-94
2023/10/01 12:30:57;;;;;;;4.93;1.52;;;22.90;99.90;;;;;;4942276;28;20157;-92
2023/10/01 12:33:38;;;;;;;8.90;3.03;;;23.20;99.90;;;;;;4953794;28;20067;-92
2023/10/01 12:36:11;;;;;;;5.13;1.90;;;22.80;99.90;;;;;;4973862;28;20368;-94
2023/10/01 12:38:38;;;;;;;5.28;2.22;;;23.00;99.90;;;;;;4942913;28;20041;-92
2023/10/01 12:41:05;;;;;;;4.82;2.00;;;23.00;99.90;;;;;;4958425;28;20137;-93
2023/10/01 12:43:37;;;;;;;6.05;1.83;;;23.20;99.90;;;;;;4943594;28;20027;-96
2023/10/01 12:46:13;;;;;;;6.65;2.05;;;23.30;99.90;;;;;;4944309;28;20049;-94
2023/10/01 12:49:12;;;;;;;7.18;1.85;;;23.40;99.90;;;;;;4941360;28;20039;-94
2023/10/01 12:51:33;;;;;;;5.63;1.88;;;23.40;99.90;;;;;;4956970;28;20026;-94
2023/10/01 12:54:06;;;;;;;6.60;2.70;;;23.30;99.90;;;;;;4945537;28;20046;-94
2023/10/01 12:56:44;;;;;;;5.45;1.98;;;23.20;99.90;;;;;;4957281;28;20402;-93
2023/10/01 12:59:19;;;;;;;4.47;1.90;;;23.20;99.90;;;;;;4945825;28;20117;-91
2023/10/01 13:01:50;;;;;;;7.88;2.25;;;23.30;99.90;;;;;;4941585;28;20030;-91
2023/10/01 13:04:25;;;;;;;4.60;1.48;;;23.40;99.90;;;;;;4956254;28;20042;-93
2023/10/01 13:07:01;;;;;;;5.75;1.88;;;23.50;99.90;;;;;;4943443;28;20057;-93
2023/10/01 13:12:24;;;;;;;5.72;2.22;;;23.30;99.90;;;;;;4962190;28;20038;-94
2023/10/01 13:18:00;;;;;;;5.20;2.05;;;23.60;99.90;;;;;;4965194;28;20023;-92
2023/10/01 13:20:29;;;;;;;6.28;2.20;;;23.60;99.90;;;;;;4962107;28;20090;-94
2023/10/01 13:23:07;;;;;;;6.22;1.90;;;23.50;99.90;;;;;;4945589;28;20163;-95
2023/10/01 13:25:36;;;;;;;5.90;2.53;;;23.50;99.90;;;;;;4957577;28;20093;-94
2023/10/01 13:28:04;;;;;;;4.82;1.67;;;23.70;99.90;;;;;;4958676;28;20517;-93
2023/10/01 13:30:51;;;;;;;6.38;2.38;;;23.80;99.90;;;;;;4943518;28;20110;-91
2023/10/01 13:33:19;;;;;;;6.35;2.58;;;23.80;99.90;;;;;;4943514;28;20533;-90
2023/10/01 13:35:57;;;;;;;6.88;1.88;;;23.60;99.90;;;;;;4939588;28;20058;-95
2023/10/01 14:11:07;;;;;;;4.65;1.55;;;23.20;99.90;;;;;;4959164;28;20026;-93
2023/10/01 14:13:36;;;;;;;5.93;1.97;;;23.30;99.90;;;;;;4961145;28;20085;-91
2023/10/01 14:16:17;;;;;;;5.97;1.83;;;23.00;99.90;;;;;;4944254;28;20027;-92
2023/10/01 14:19:13;;;;;;;5.40;2.13;;;23.10;99.90;;;;;;4941954;28;20032;-92
2023/10/01 14:21:40;;;;;;;6.05;2.75;;;23.20;99.90;;;;;;4960839;28;20026;-94
2023/10/01 14:24:23;;;;;;;6.82;2.90;;;23.30;99.90;;;;;;4958152;28;20023;-92
2023/10/01 14:26:50;;;;;;;8.65;2.97;;;23.30;99.90;;;;;;4958996;28;20041;-92
2023/10/01 14:29:22;;;;;;;6.55;2.40;;;23.30;99.90;;;;;;4961238;28;20109;-92
2023/10/01 14:31:52;;;;;;;9.85;3.67;;;23.30;99.90;;;;;;4943147;28;20031;-94